Time;durP1;ratioP1;P1;durP2;ratioP2;P2;SDS_P1;SDS_P2;PMS_P1;PMS_P2;Temp;Humidity;BMP_temperature;BMP_pressure;BME280_temperature;BME280_humidity;BME280_pressure;Samples;Min_cycle;Max_cycle;Signal;HPM_P1;HPM_P2
2021/03/05 00:00:15;;;;;;;16.55;2.58;;;4.40;99.90;;;;;;5024398;28;20079;-52
2021/03/05 00:02:41;;;;;;;20.77;2.88;;;4.40;99.90;;;;;;5032334;28;20033;-56
2021/03/05 00:05:08;;;;;;;18.05;2.58;;;4.40;99.90;;;;;;5032284;28;20483;-53
2021/03/05 00:07:36;;;;;;;20.65;2.88;;;4.30;99.90;;;;;;5029942;28;20070;-51
2021/03/05 00:10:06;;;;;;;11.50;2.15;;;4.30;99.90;;;;;;5032680;28;20403;-52
2021/03/05 00:12:32;;;;;;;14.45;2.83;;;4.30;99.90;;;;;;5031344;28;20487;-57
2021/03/05 00:14:58;;;;;;;16.23;3.00;;;4.30;99.90;;;;;;5032411;28;20029;-53
2021/03/05 00:17:23;;;;;;;16.90;2.40;;;4.30;99.90;;;;;;5031841;28;20033;-54
2021/03/05 00:19:49;;;;;;;14.98;2.42;;;4.30;99.90;;;;;;5032291;28;20057;-54
2021/03/05 00:22:15;;;;;;;14.40;2.38;;;4.30;99.90;;;;;;5032917;28;20033;-57
2021/03/05 00:24:40;;;;;;;15.35;2.50;;;4.20;99.90;;;;;;5032151;28;20067;-55
2021/03/05 00:27:06;;;;;;;13.68;2.40;;;4.20;99.90;;;;;;5031770;28;20037;-52
2021/03/05 00:29:32;;;;;;;24.52;2.80;;;4.20;99.90;;;;;;5032264;28;20535;-57
2021/03/05 00:31:57;;;;;;;18.95;2.53;;;4.20;99.90;;;;;;5032192;28;20033;-55
2021/03/05 00:34:23;;;;;;;13.68;2.38;;;4.20;99.90;;;;;;5032555;28;20061;-56
2021/03/05 00:36:49;;;;;;;16.05;2.60;;;4.10;99.90;;;;;;5030102;28;20104;-53
2021/03/05 00:39:15;;;;;;;12.25;2.67;;;4.20;99.90;;;;;;5031102;28;20033;-54
2021/03/05 00:41:40;;;;;;;16.75;2.42;;;4.10;99.90;;;;;;5031833;28;20028;-54
2021/03/05 00:44:06;;;;;;;13.07;2.63;;;4.20;99.90;;;;;;5032516;28;20569;-54
2021/03/05 00:46:33;;;;;;;17.33;3.00;;;4.20;99.90;;;;;;5031364;28;20546;-56
2021/03/05 00:48:59;;;;;;;13.35;2.35;;;4.20;99.90;;;;;;5031275;28;20112;-53
2021/03/05 00:51:26;;;;;;;17.88;2.60;;;4.20;99.90;;;;;;5031605;28;20040;-53
2021/03/05 00:53:52;;;;;;;13.50;2.50;;;4.20;99.90;;;;;;5031932;28;20037;-57
2021/03/05 00:56:18;;;;;;;16.40;3.17;;;4.20;99.90;;;;;;5028987;28;20035;-50
2021/03/05 00:58:44;;;;;;;15.05;2.58;;;4.20;99.90;;;;;;5032212;28;20064;-56
2021/03/05 01:01:10;;;;;;;18.27;2.90;;;4.20;99.90;;;;;;5029533;28;20774;-58
2021/03/05 01:03:35;;;;;;;16.63;2.85;;;4.20;99.90;;;;;;5029209;28;20045;-54
2021/03/05 01:06:02;;;;;;;15.02;2.33;;;4.20;99.90;;;;;;5029920;28;20476;-53
2021/03/05 01:08:28;;;;;;;14.98;2.35;;;4.10;99.90;;;;;;5032229;28;20566;-50
2021/03/05 01:10:54;;;;;;;13.02;2.65;;;4.10;99.90;;;;;;5030625;28;20104;-54
2021/03/05 01:13:19;;;;;;;20.92;2.83;;;4.10;99.90;;;;;;5031638;28;20025;-56
2021/03/05 01:15:45;;;;;;;13.88;2.90;;;4.10;99.90;;;;;;5031869;28;20069;-52
2021/03/05 01:18:11;;;;;;;13.15;2.15;;;4.10;99.90;;;;;;5030169;28;20148;-52
2021/03/05 01:20:37;;;;;;;13.27;2.08;;;4.00;99.90;;;;;;5031883;28;20551;-54
2021/03/05 01:23:03;;;;;;;20.10;2.80;;;3.80;99.90;;;;;;5031105;28;20044;-54
2021/03/05 01:25:31;;;;;;;18.17;3.15;;;3.80;99.90;;;;;;5030693;28;20068;-52
2021/03/05 01:27:57;;;;;;;17.95;2.92;;;3.70;99.90;;;;;;5029578;28;20033;-53
2021/03/05 01:30:24;;;;;;;17.45;2.40;;;3.70;99.90;;;;;;5032195;28;20112;-57
2021/03/05 01:32:50;;;;;;;16.77;2.80;;;3.60;99.90;;;;;;5030204;28;20141;-53
2021/03/05 01:35:21;;;;;;;11.65;2.15;;;3.70;99.90;;;;;;5031312;28;20033;-56
2021/03/05 01:37:46;;;;;;;10.80;2.20;;;3.70;99.90;;;;;;5030283;28;20099;-58
2021/03/05 01:40:18;;;;;;;16.15;2.88;;;3.70;99.90;;;;;;5030527;28;20463;-57
2021/03/05 01:42:44;;;;;;;12.73;2.17;;;3.70;99.90;;;;;;5030633;28;20034;-53
2021/03/05 01:45:23;;;;;;;19.23;2.35;;;3.70;99.90;;;;;;5030864;28;20030;-54
2021/03/05 01:47:55;;;;;;;16.80;2.08;;;3.70;99.90;;;;;;5028868;28;20040;-57
2021/03/05 01:50:24;;;;;;;18.10;2.60;;;3.70;99.90;;;;;;5029653;28;20490;-53
2021/03/05 01:53:00;;;;;;;17.55;2.45;;;3.70;99.90;;;;;;5030630;28;20061;-52
2021/03/05 01:55:26;;;;;;;13.15;2.42;;;3.80;99.90;;;;;;5030145;28;20026;-53
2021/03/05 01:57:53;;;;;;;12.35;2.22;;;3.70;99.90;;;;;;5030323;28;20040;-55
2021/03/05 02:00:25;;;;;;;12.40;2.13;;;3.70;99.90;;;;;;5030110;28;20038;-49
2021/03/05 02:02:53;;;;;;;9.85;2.20;;;3.70;99.90;;;;;;5027657;28;20041;-52
2021/03/05 02:05:19;;;;;;;10.43;2.13;;;3.60;99.90;;;;;;5030678;28;20555;-53
2021/03/05 02:07:44;;;;;;;12.95;2.10;;;3.60;99.90;;;;;;5029200;28;20120;-51
2021/03/05 02:10:11;;;;;;;16.05;2.95;;;3.60;99.90;;;;;;5031148;28;20781;-53
2021/03/05 02:12:37;;;;;;;14.63;2.50;;;3.60;99.90;;;;;;5030765;28;20037;-54
2021/03/05 02:15:04;;;;;;;14.55;2.22;;;3.60;99.90;;;;;;5030811;28;20493;-55
2021/03/05 02:17:34;;;;;;;14.15;2.40;;;3.60;99.90;;;;;;5028946;28;20395;-54
2021/03/05 02:20:03;;;;;;;21.35;2.63;;;3.60;99.90;;;;;;5030646;28;20079;-55
2021/03/05 02:22:41;;;;;;;17.75;2.70;;;3.60;99.90;;;;;;5030280;28;20029;-53
2021/03/05 02:25:43;;;;;;;18.50;3.67;;;3.50;99.90;;;;;;5029889;28;20053;-50
2021/03/05 02:28:39;;;;;;;13.80;2.45;;;3.60;99.90;;;;;;5027791;28;20395;-53
2021/03/05 02:31:18;;;;;;;13.20;2.75;;;3.50;99.90;;;;;;5029574;28;20117;-52
2021/03/05 02:34:01;;;;;;;9.82;2.50;;;3.50;99.90;;;;;;5030499;28;20103;-57
2021/03/05 02:36:41;;;;;;;14.00;2.58;;;3.50;99.90;;;;;;5030556;28;20044;-54
2021/03/05 02:39:42;;;;;;;11.43;2.47;;;3.60;99.90;;;;;;5028986;28;20026;-52
2021/03/05 02:42:10;;;;;;;13.57;2.60;;;3.60;99.90;;;;;;5021588;28;20042;-57
2021/03/05 02:44:51;;;;;;;13.30;2.70;;;3.60;99.90;;;;;;5029124;28;20033;-53
2021/03/05 02:47:20;;;;;;;11.27;2.42;;;3.50;99.90;;;;;;5024232;28;20476;-50
2021/03/05 02:49:50;;;;;;;19.75;2.88;;;3.50;99.90;;;;;;5028871;28;20395;-51
2021/03/05 02:52:19;;;;;;;21.27;2.70;;;3.50;99.90;;;;;;5030741;28;20120;-52
2021/03/05 02:54:51;;;;;;;16.17;3.38;;;3.40;99.90;;;;;;5030099;28;20072;-52
2021/03/05 02:57:18;;;;;;;21.65;2.55;;;3.40;99.90;;;;;;5028761;28;20091;-54
2021/03/05 02:59:45;;;;;;;22.08;3.05;;;3.40;99.90;;;;;;5030704;28;20026;-53
2021/03/05 03:02:12;;;;;;;16.20;2.50;;;3.30;99.90;;;;;;5027849;28;20033;-55
2021/03/05 03:04:42;;;;;;;15.90;2.55;;;3.30;99.90;;;;;;5031045;28;20091;-54
2021/03/05 03:07:10;;;;;;;14.80;2.83;;;3.30;99.90;;;;;;5028504;28;20060;-57
2021/03/05 03:09:38;;;;;;;19.15;3.15;;;3.20;99.90;;;;;;5031281;28;20467;-53
2021/03/05 03:12:05;;;;;;;14.23;2.67;;;3.20;99.90;;;;;;5032425;28;20645;-59
2021/03/05 03:14:31;;;;;;;17.23;3.05;;;3.10;99.90;;;;;;5016183;28;20797;-54
2021/03/05 03:16:58;;;;;;;12.00;2.67;;;3.20;99.90;;;;;;5031638;28;20457;-50
2021/03/05 03:19:24;;;;;;;16.85;2.65;;;3.10;99.90;;;;;;5033949;28;20040;-57
2021/03/05 03:21:51;;;;;;;17.00;2.63;;;3.10;99.90;;;;;;5032669;28;20040;-54
2021/03/05 03:24:17;;;;;;;15.50;2.83;;;3.00;99.90;;;;;;5034286;28;20034;-56
2021/03/05 03:26:43;;;;;;;14.93;2.65;;;2.90;99.90;;;;;;5032485;28;20108;-55
2021/03/05 03:29:09;;;;;;;8.02;2.17;;;2.90;99.90;;;;;;5032001;28;20040;-57
2021/03/05 03:31:41;;;;;;;18.38;3.10;;;2.80;99.90;;;;;;5032212;28;20025;-53
2021/03/05 03:34:07;;;;;;;12.88;2.85;;;2.70;99.90;;;;;;5032269;28;20043;-53
2021/03/05 03:36:37;;;;;;;12.60;2.22;;;2.70;99.90;;;;;;5032326;28;20068;-54
2021/03/05 03:39:05;;;;;;;14.82;2.80;;;2.70;99.90;;;;;;5032623;28;20038;-52
2021/03/05 03:41:35;;;;;;;10.82;2.10;;;2.60;99.90;;;;;;5032788;28;20042;-52
2021/03/05 03:44:04;;;;;;;18.15;2.65;;;2.50;99.90;;;;;;5033637;28;20384;-54
2021/03/05 03:46:30;;;;;;;12.77;2.60;;;2.40;99.90;;;;;;5031907;28;20037;-53
2021/03/05 03:49:01;;;;;;;9.50;2.17;;;2.40;99.90;;;;;;5031746;28;20092;-54
2021/03/05 03:51:28;;;;;;;14.98;2.55;;;2.40;99.90;;;;;;5033698;28;20035;-53
2021/03/05 03:53:56;;;;;;;18.88;2.65;;;2.40;99.90;;;;;;5031492;28;20026;-52
2021/03/05 03:56:25;;;;;;;11.07;2.30;;;2.40;99.90;;;;;;5032505;28;20471;-54
2021/03/05 03:58:55;;;;;;;11.90;2.38;;;2.30;99.90;;;;;;5031162;28;20529;-54
2021/03/05 04:01:22;;;;;;;17.75;2.90;;;2.30;99.90;;;;;;5030241;28;20033;-52
2021/03/05 04:03:50;;;;;;;17.58;2.55;;;2.20;99.90;;;;;;5033213;28;20034;-55
2021/03/05 04:06:23;;;;;;;13.15;2.30;;;2.10;99.90;;;;;;5031084;28;20044;-54
2021/03/05 04:08:50;;;;;;;14.32;2.50;;;2.10;99.90;;;;;;5032353;28;20036;-50
2021/03/05 04:11:17;;;;;;;16.95;2.53;;;2.00;99.90;;;;;;5032987;28;20038;-54
2021/03/05 04:13:43;;;;;;;13.20;2.50;;;2.00;99.90;;;;;;5032362;28;20045;-52
2021/03/05 04:16:10;;;;;;;12.60;2.15;;;2.00;99.90;;;;;;5032029;28;20048;-51
2021/03/05 04:18:40;;;;;;;12.98;2.42;;;1.90;99.90;;;;;;5031647;28;20029;-52
2021/03/05 04:21:29;;;;;;;14.02;2.55;;;1.90;99.90;;;;;;5023679;28;20466;-52
2021/03/05 04:23:55;;;;;;;9.73;1.80;;;1.90;99.90;;;;;;5014222;28;20538;-50
2021/03/05 04:26:20;;;;;;;10.50;1.90;;;1.80;99.90;;;;;;5031104;28;20037;-51
2021/03/05 04:28:46;;;;;;;12.75;2.33;;;1.80;99.90;;;;;;5032241;28;20120;-53
2021/03/05 04:31:12;;;;;;;14.27;2.70;;;1.70;99.90;;;;;;5032982;28;20505;-54
2021/03/05 04:33:38;;;;;;;11.43;2.35;;;1.70;99.90;;;;;;5031395;28;20401;-54
2021/03/05 04:36:04;;;;;;;15.20;2.28;;;1.60;99.90;;;;;;5031216;28;20044;-52
2021/03/05 04:38:29;;;;;;;15.77;2.30;;;1.60;99.90;;;;;;5031472;28;20037;-53
2021/03/05 04:40:55;;;;;;;14.52;2.58;;;1.60;99.90;;;;;;5031812;28;20034;-51
2021/03/05 04:43:21;;;;;;;10.10;2.35;;;1.50;99.90;;;;;;5033768;28;20112;-54
2021/03/05 04:45:47;;;;;;;13.45;2.60;;;1.60;99.90;;;;;;5032598;28;20076;-56
2021/03/05 04:48:13;;;;;;;9.90;2.13;;;1.50;99.90;;;;;;5031179;28;20487;-53
2021/03/05 04:50:38;;;;;;;14.15;2.28;;;1.50;99.90;;;;;;5031937;28;20112;-53
2021/03/05 04:53:04;;;;;;;11.10;2.35;;;1.50;99.90;;;;;;5031963;28;20033;-57
2021/03/05 04:55:30;;;;;;;12.30;2.22;;;1.50;99.90;;;;;;5019205;28;20030;-52
2021/03/05 04:57:56;;;;;;;9.50;2.17;;;1.50;99.90;;;;;;5030549;28;20038;-54
2021/03/05 05:00:22;;;;;;;9.38;2.25;;;1.50;99.90;;;;;;5032380;28;20030;-51
2021/03/05 05:02:48;;;;;;;18.10;2.40;;;1.40;99.90;;;;;;5031038;28;20606;-51
2021/03/05 05:05:14;;;;;;;11.07;2.20;;;1.50;99.90;;;;;;5030275;28;20120;-52
2021/03/05 05:07:41;;;;;;;10.75;2.33;;;1.40;99.90;;;;;;5031601;28;20048;-54
2021/03/05 05:10:07;;;;;;;10.93;2.33;;;1.40;99.90;;;;;;5031724;28;20499;-53
2021/03/05 05:12:33;;;;;;;10.07;2.22;;;1.30;99.90;;;;;;5030877;28;20021;-52
2021/03/05 05:14:58;;;;;;;21.38;2.97;;;1.30;99.90;;;;;;5032312;28;20029;-50
2021/03/05 05:17:24;;;;;;;15.98;3.03;;;1.20;99.90;;;;;;5032292;28;20048;-53
2021/03/05 05:19:50;;;;;;;9.25;2.50;;;1.20;99.90;;;;;;5029835;28;20050;-53
2021/03/05 05:22:15;;;;;;;20.10;3.05;;;1.20;99.90;;;;;;5031742;28;20025;-54
2021/03/05 05:24:41;;;;;;;13.27;3.05;;;1.20;99.90;;;;;;5030480;28;20045;-54
2021/03/05 05:27:07;;;;;;;13.07;3.05;;;1.30;99.90;;;;;;5030866;28;20033;-54
2021/03/05 05:29:33;;;;;;;18.30;3.28;;;1.30;99.90;;;;;;5029441;28;20033;-55
2021/03/05 05:31:58;;;;;;;14.23;2.95;;;1.30;99.90;;;;;;5030764;28;20038;-54
2021/03/05 05:34:24;;;;;;;12.93;2.70;;;1.30;99.90;;;;;;5030660;28;20033;-49
2021/03/05 05:36:50;;;;;;;15.73;2.78;;;1.30;99.90;;;;;;5030794;28;20097;-56
2021/03/05 05:39:16;;;;;;;16.30;3.03;;;1.40;99.90;;;;;;5003842;28;20048;-53
2021/03/05 05:41:42;;;;;;;19.48;3.30;;;1.50;99.90;;;;;;5030192;28;20030;-55
2021/03/05 05:44:08;;;;;;;14.82;2.95;;;1.60;99.90;;;;;;5030054;28;20033;-52
2021/03/05 05:46:35;;;;;;;17.27;3.80;;;1.80;99.90;;;;;;5030738;28;21648;-55
2021/03/05 05:49:03;;;;;;;21.73;3.28;;;1.90;99.90;;;;;;5030729;28;20095;-50
2021/03/05 05:51:33;;;;;;;18.95;3.40;;;2.00;99.90;;;;;;5030266;28;20038;-53
2021/03/05 05:54:10;;;;;;;19.63;3.03;;;2.00;99.90;;;;;;5030317;28;20060;-56
2021/03/05 05:56:40;;;;;;;19.77;3.03;;;2.10;99.90;;;;;;5029643;28;20052;-54
2021/03/05 05:59:07;;;;;;;20.90;2.92;;;2.20;99.90;;;;;;5029605;28;20030;-51
2021/03/05 06:01:34;;;;;;;18.08;2.63;;;2.20;99.90;;;;;;5031449;28;20063;-56
2021/03/05 06:04:04;;;;;;;20.45;3.50;;;2.30;99.90;;;;;;5030174;28;20025;-55
2021/03/05 06:06:31;;;;;;;23.30;3.60;;;2.40;99.90;;;;;;5028744;28;20052;-54
2021/03/05 06:08:58;;;;;;;24.50;3.58;;;2.40;99.90;;;;;;5029795;28;20025;-52
2021/03/05 06:11:37;;;;;;;19.25;3.08;;;2.50;99.90;;;;;;5033317;28;20060;-53
2021/03/05 06:14:08;;;;;;;17.40;3.22;;;2.50;99.90;;;;;;5030094;28;20037;-52
2021/03/05 06:16:34;;;;;;;24.55;3.10;;;2.50;99.90;;;;;;5033598;28;20032;-56
2021/03/05 06:19:16;;;;;;;19.80;3.05;;;2.60;99.90;;;;;;5030388;28;20033;-50
2021/03/05 06:21:41;;;;;;;11.40;2.78;;;2.70;99.90;;;;;;5029608;28;20136;-50
2021/03/05 06:24:10;;;;;;;23.65;3.80;;;2.70;99.90;;;;;;5030716;28;20121;-53
2021/03/05 06:27:00;;;;;;;15.85;2.80;;;2.70;99.90;;;;;;5030209;28;20026;-53
2021/03/05 06:29:27;;;;;;;20.83;2.72;;;2.70;99.90;;;;;;5030013;28;20041;-56
2021/03/05 06:31:58;;;;;;;18.60;2.97;;;2.70;99.90;;;;;;5017526;28;20049;-53
2021/03/05 06:34:25;;;;;;;15.77;3.30;;;2.70;99.90;;;;;;5007932;28;20434;-55
2021/03/05 06:37:04;;;;;;;17.05;3.42;;;2.70;99.90;;;;;;5030026;28;20471;-50
2021/03/05 06:39:32;;;;;;;12.80;2.75;;;2.70;99.90;;;;;;5029501;28;20057;-53
2021/03/05 06:42:06;;;;;;;18.27;3.35;;;2.80;99.90;;;;;;5030658;28;20044;-53
2021/03/05 06:44:34;;;;;;;20.27;3.85;;;2.70;99.90;;;;;;5024404;28;20041;-53
2021/03/05 06:47:16;;;;;;;22.17;3.95;;;2.80;99.90;;;;;;5030551;28;20095;-55
2021/03/05 06:49:44;;;;;;;19.83;3.75;;;2.80;99.90;;;;;;5034270;28;20034;-54
2021/03/05 06:52:17;;;;;;;18.35;3.30;;;2.90;99.90;;;;;;5034458;28;20046;-53
2021/03/05 06:54:44;;;;;;;23.25;3.78;;;2.90;99.90;;;;;;5033213;28;20041;-53
2021/03/05 06:57:13;;;;;;;15.95;3.28;;;3.00;99.90;;;;;;5033410;28;20037;-53
2021/03/05 06:59:46;;;;;;;16.55;3.20;;;3.00;99.90;;;;;;5032040;28;20550;-51
2021/03/05 07:02:14;;;;;;;19.92;4.30;;;3.00;99.90;;;;;;5033333;28;20108;-54
2021/03/05 07:04:43;;;;;;;21.48;3.85;;;3.00;99.90;;;;;;5033022;28;20399;-54
2021/03/05 07:07:10;;;;;;;18.20;3.08;;;2.90;99.90;;;;;;5015625;28;20065;-51
2021/03/05 07:09:47;;;;;;;16.55;3.55;;;3.00;99.90;;;;;;5033690;28;20026;-53
2021/03/05 07:12:25;;;;;;;15.38;2.75;;;3.00;99.90;;;;;;5027514;28;20038;-56
2021/03/05 07:15:01;;;;;;;19.52;3.40;;;3.10;99.90;;;;;;5032028;28;20041;-52
2021/03/05 07:17:29;;;;;;;15.90;2.42;;;3.00;99.90;;;;;;5033918;28;20045;-52
2021/03/05 07:19:55;;;;;;;10.80;2.75;;;3.10;99.90;;;;;;5032399;28;20053;-53
2021/03/05 07:22:25;;;;;;;12.30;2.85;;;3.20;99.90;;;;;;5033935;28;20025;-57
2021/03/05 07:24:51;;;;;;;16.40;2.75;;;3.20;99.90;;;;;;5029996;28;20038;-52
2021/03/05 07:27:21;;;;;;;20.95;4.05;;;3.20;99.90;;;;;;5031319;28;20033;-54
2021/03/05 07:29:49;;;;;;;20.75;3.13;;;3.20;99.90;;;;;;5029564;28;20052;-49
2021/03/05 07:32:26;;;;;;;16.23;2.53;;;3.20;99.90;;;;;;5029726;28;20495;-50
2021/03/05 07:35:01;;;;;;;16.20;3.08;;;3.30;99.90;;;;;;5030874;28;20036;-58
2021/03/05 07:37:41;;;;;;;20.45;3.25;;;3.30;99.90;;;;;;5028268;28;20113;-51
2021/03/05 07:40:10;;;;;;;17.52;2.70;;;3.30;99.90;;;;;;5028302;28;21666;-53
2021/03/05 07:42:38;;;;;;;17.60;3.35;;;3.30;99.90;;;;;;5028593;28;20033;-53
2021/03/05 07:45:05;;;;;;;16.63;3.08;;;3.30;99.90;;;;;;5027276;28;20037;-51
2021/03/05 07:47:34;;;;;;;20.35;2.92;;;3.40;99.90;;;;;;5026986;28;20064;-52
2021/03/05 07:50:02;;;;;;;19.38;2.88;;;3.40;99.90;;;;;;5027658;28;20025;-52
2021/03/05 07:52:28;;;;;;;26.80;3.08;;;3.50;99.90;;;;;;5026802;28;20033;-56
2021/03/05 07:54:54;;;;;;;19.23;3.97;;;3.50;99.90;;;;;;5027065;28;20048;-56
2021/03/05 07:57:20;;;;;;;23.90;2.95;;;3.60;99.90;;;;;;5028547;28;20045;-54
2021/03/05 07:59:50;;;;;;;9.75;1.65;;;3.70;99.90;;;;;;5024662;28;20045;-54
2021/03/05 08:02:17;;;;;;;39.28;3.83;;;3.70;99.90;;;;;;5029475;28;20112;-52
2021/03/05 08:05:22;;;;;;;19.15;2.83;;;3.80;99.90;;;;;;5025704;28;20029;-56
2021/03/05 08:07:41;;;;;;;21.27;2.20;;;3.80;99.90;;;;;;5023466;28;20065;-51
2021/03/05 08:10:27;;;;;;;19.40;2.55;;;3.80;99.90;;;;;;5026340;28;20071;-53
2021/03/05 08:12:53;;;;;;;53.40;4.90;;;3.80;99.90;;;;;;5027010;28;20116;-51
2021/03/05 08:15:18;;;;;;;27.48;2.95;;;3.80;99.90;;;;;;5030275;28;20124;-52
2021/03/05 08:17:46;;;;;;;58.20;3.60;;;4.00;99.90;;;;;;5026594;28;20063;-57
2021/03/05 08:20:17;;;;;;;83.30;7.57;;;4.00;99.90;;;;;;5028868;28;20057;-54
2021/03/05 08:22:59;;;;;;;51.55;4.20;;;4.10;99.90;;;;;;5029821;28;20514;-56
2021/03/05 08:25:30;;;;;;;67.05;4.82;;;4.20;99.90;;;;;;5011306;28;20423;-48
2021/03/05 08:28:01;;;;;;;89.53;6.15;;;4.20;99.90;;;;;;5030911;28;20041;-51
2021/03/05 08:30:26;;;;;;;41.60;3.53;;;4.30;99.90;;;;;;5030330;28;20159;-55
2021/03/05 08:32:56;;;;;;;20.83;2.30;;;4.40;99.90;;;;;;5030072;28;20060;-51
2021/03/05 08:35:31;;;;;;;30.33;2.75;;;4.50;99.90;;;;;;5030579;28;20029;-53
2021/03/05 08:38:17;;;;;;;29.40;2.22;;;4.50;99.90;;;;;;5029559;28;20109;-55
2021/03/05 08:40:46;;;;;;;29.35;3.10;;;4.50;99.90;;;;;;5027726;28;20026;-52
2021/03/05 08:43:23;;;;;;;55.03;4.32;;;4.60;99.90;;;;;;5029653;28;20095;-52
2021/03/05 08:46:03;;;;;;;39.05;4.00;;;4.60;99.90;;;;;;5029885;28;20044;-56
2021/03/05 08:48:43;;;;;;;23.30;2.63;;;4.60;99.90;;;;;;5029475;28;20030;-54
2021/03/05 08:51:12;;;;;;;74.75;5.38;;;4.70;99.90;;;;;;5028780;28;20029;-57
2021/03/05 08:53:45;;;;;;;50.55;3.78;;;4.60;99.90;;;;;;5029234;28;20033;-56
2021/03/05 08:56:19;;;;;;;141.88;11.00;;;4.60;99.90;;;;;;5029647;28;20030;-51
2021/03/05 08:59:04;;;;;;;62.63;5.40;;;4.70;99.90;;;;;;5029226;28;20046;-55
2021/03/05 09:01:31;;;;;;;71.72;5.32;;;4.90;99.90;;;;;;5026045;28;20522;-56
2021/03/05 09:04:17;;;;;;;31.85;3.30;;;4.90;99.90;;;;;;5029640;28;20081;-52
2021/03/05 09:06:46;;;;;;;24.20;2.50;;;5.00;99.90;;;;;;5030580;28;20029;-51
2021/03/05 09:09:13;;;;;;;12.00;1.58;;;5.00;99.90;;;;;;5027326;28;20033;-50
2021/03/05 09:11:38;;;;;;;58.63;4.80;;;5.00;99.90;;;;;;5028661;28;20368;-53
2021/03/05 09:14:28;;;;;;;28.17;2.88;;;5.10;99.90;;;;;;5030446;28;20037;-53
2021/03/05 09:16:59;;;;;;;38.67;2.60;;;5.10;99.90;;;;;;5024414;28;20084;-51
2021/03/05 09:19:36;;;;;;;60.28;5.38;;;5.10;99.90;;;;;;5028475;28;20029;-53
2021/03/05 09:22:08;;;;;;;38.38;3.45;;;5.10;99.90;;;;;;5030397;28;20053;-53
2021/03/05 09:24:57;;;;;;;30.75;3.00;;;5.10;99.90;;;;;;5029945;28;20088;-55
2021/03/05 09:27:31;;;;;;;47.55;3.67;;;5.20;99.90;;;;;;5029142;28;20116;-53
2021/03/05 09:29:58;;;;;;;21.20;2.40;;;5.20;99.90;;;;;;5029894;28;20030;-54
2021/03/05 09:32:24;;;;;;;38.20;3.00;;;5.30;99.90;;;;;;5029855;28;20091;-55
2021/03/05 09:34:58;;;;;;;58.85;5.10;;;5.30;99.90;;;;;;5029945;28;20038;-54
2021/03/05 09:37:26;;;;;;;46.43;4.40;;;5.30;99.90;;;;;;5029481;28;20079;-54
2021/03/05 09:39:54;;;;;;;58.22;4.53;;;5.40;99.90;;;;;;5030903;28;20064;-56
2021/03/05 09:42:56;;;;;;;27.48;2.67;;;5.50;99.90;;;;;;5031279;28;20052;-52
2021/03/05 09:45:42;;;;;;;35.20;2.78;;;5.50;99.90;;;;;;5029246;28;20033;-52
2021/03/05 09:48:26;;;;;;;20.17;2.45;;;5.60;99.90;;;;;;5027065;28;20033;-53
2021/03/05 09:51:00;;;;;;;56.05;4.63;;;5.60;99.90;;;;;;5024905;28;20106;-54
2021/03/05 09:53:28;;;;;;;29.10;2.92;;;5.70;99.90;;;;;;5030098;28;20033;-54
2021/03/05 09:55:56;;;;;;;27.40;2.38;;;5.70;99.90;;;;;;5027959;28;20056;-55
2021/03/05 09:58:22;;;;;;;36.70;3.90;;;5.90;99.90;;;;;;5028891;28;20113;-51
2021/03/05 10:00:50;;;;;;;59.45;5.07;;;5.90;99.90;;;;;;5028156;28;20041;-50
2021/03/05 10:03:16;;;;;;;36.38;3.65;;;6.00;99.90;;;;;;5026732;28;20087;-51
2021/03/05 10:05:44;;;;;;;21.05;3.45;;;6.10;99.90;;;;;;5029452;28;20072;-50
2021/03/05 10:08:11;;;;;;;52.83;4.63;;;6.00;99.90;;;;;;5029802;28;20029;-51
2021/03/05 10:10:59;;;;;;;46.55;4.30;;;6.00;99.90;;;;;;5027605;28;20048;-54
2021/03/05 10:13:45;;;;;;;15.48;2.28;;;6.00;99.90;;;;;;5028800;28;20042;-53
2021/03/05 10:16:18;;;;;;;27.83;2.85;;;6.00;99.90;;;;;;5027045;28;20476;-52
2021/03/05 10:18:46;;;;;;;34.28;4.05;;;6.00;99.90;;;;;;5029906;28;20116;-56
2021/03/05 10:21:14;;;;;;;18.73;2.30;;;6.10;99.90;;;;;;5027618;28;20140;-55
2021/03/05 10:23:41;;;;;;;54.45;3.95;;;6.10;99.90;;;;;;5034367;28;20018;-55
2021/03/05 10:26:24;;;;;;;18.30;2.00;;;6.10;99.90;;;;;;5027005;28;20403;-55
2021/03/05 10:28:56;;;;;;;20.45;2.05;;;6.10;99.90;;;;;;5030015;28;20036;-53
2021/03/05 10:31:37;;;;;;;11.77;2.03;;;6.10;99.90;;;;;;5033206;28;20030;-56
2021/03/05 10:34:03;;;;;;;22.77;2.20;;;6.10;99.90;;;;;;5030938;28;20033;-53
2021/03/05 10:36:29;;;;;;;14.68;1.63;;;6.10;99.90;;;;;;5034142;28;20025;-56
2021/03/05 10:38:54;;;;;;;8.80;1.65;;;6.10;99.90;;;;;;5034171;28;20407;-50
2021/03/05 10:41:20;;;;;;;8.63;1.42;;;6.20;99.90;;;;;;5034043;28;20029;-54
2021/03/05 10:43:46;;;;;;;9.52;1.50;;;6.20;99.90;;;;;;5034258;28;20099;-53
2021/03/05 10:46:13;;;;;;;15.32;2.13;;;6.10;99.90;;;;;;5033980;28;20034;-53
2021/03/05 10:48:39;;;;;;;5.88;1.40;;;6.10;99.90;;;;;;5034151;28;20504;-52
2021/03/05 10:51:04;;;;;;;21.67;2.70;;;6.00;99.90;;;;;;5032009;28;20022;-50
2021/03/05 10:53:30;;;;;;;13.88;2.13;;;6.00;99.90;;;;;;5034318;28;20103;-55
2021/03/05 10:55:56;;;;;;;49.40;11.23;;;6.00;99.90;;;;;;5033440;28;20026;-55
2021/03/05 10:58:22;;;;;;;13.50;2.95;;;6.10;99.90;;;;;;5034226;28;20037;-49
2021/03/05 11:00:47;;;;;;;21.05;2.20;;;6.10;99.90;;;;;;5031612;28;20092;-51
2021/03/05 11:03:13;;;;;;;14.82;1.50;;;6.10;99.90;;;;;;5033277;28;20079;-52
2021/03/05 11:05:39;;;;;;;27.17;2.70;;;6.10;99.90;;;;;;5029705;28;20032;-52
2021/03/05 11:08:05;;;;;;;12.65;1.70;;;6.10;99.90;;;;;;5033930;28;20048;-53
2021/03/05 11:10:31;;;;;;;23.73;2.15;;;6.10;99.90;;;;;;5032858;28;20030;-56
2021/03/05 11:12:56;;;;;;;13.73;1.67;;;6.10;99.90;;;;;;5033293;28;20128;-53
2021/03/05 11:15:22;;;;;;;12.45;2.20;;;6.10;99.90;;;;;;5033119;28;20021;-54
2021/03/05 11:17:48;;;;;;;11.60;2.30;;;6.10;99.90;;;;;;5032569;28;20067;-53
2021/03/05 11:20:14;;;;;;;28.98;2.65;;;6.10;99.90;;;;;;5033119;28;20907;-53
2021/03/05 11:22:40;;;;;;;39.65;3.78;;;6.20;99.90;;;;;;5033005;28;20037;-51
2021/03/05 11:25:09;;;;;;;18.40;2.25;;;6.30;99.90;;;;;;5033306;28;20072;-52
2021/03/05 11:27:35;;;;;;;11.32;1.98;;;6.40;99.90;;;;;;5031331;28;20025;-54
2021/03/05 11:30:04;;;;;;;11.38;1.70;;;6.40;99.90;;;;;;5031012;28;20037;-53
2021/03/05 11:32:32;;;;;;;9.55;1.73;;;6.40;99.90;;;;;;5028683;28;20029;-54
2021/03/05 11:34:57;;;;;;;29.95;2.47;;;6.40;99.90;;;;;;5033482;28;20040;-51
2021/03/05 11:37:23;;;;;;;10.23;1.70;;;6.40;99.90;;;;;;5032308;28;20497;-52
2021/03/05 11:39:49;;;;;;;23.08;2.47;;;6.40;99.90;;;;;;5033400;28;20088;-57
2021/03/05 11:42:14;;;;;;;10.40;1.80;;;6.40;99.90;;;;;;5028555;28;20467;-53
2021/03/05 11:44:40;;;;;;;47.88;3.60;;;6.50;99.90;;;;;;5024379;28;20418;-53
2021/03/05 11:47:06;;;;;;;52.00;4.28;;;6.60;99.90;;;;;;5025861;28;20045;-56
2021/03/05 11:49:32;;;;;;;59.97;6.03;;;6.60;99.90;;;;;;5011851;28;20558;-55
2021/03/05 11:51:57;;;;;;;24.63;3.00;;;6.70;99.90;;;;;;5030079;28;20040;-53
2021/03/05 11:54:23;;;;;;;11.40;1.92;;;6.80;99.90;;;;;;5032715;28;20044;-55
2021/03/05 11:56:49;;;;;;;37.50;3.20;;;6.80;99.90;;;;;;5030992;28;20026;-56
2021/03/05 11:59:15;;;;;;;19.00;2.90;;;6.70;99.90;;;;;;5030048;28;20107;-54
2021/03/05 12:01:43;;;;;;;17.25;1.70;;;6.80;99.90;;;;;;5022310;28;20495;-53
2021/03/05 12:04:09;;;;;;;22.48;2.85;;;6.80;99.90;;;;;;5033900;28;20029;-56
2021/03/05 12:06:35;;;;;;;48.95;4.90;;;6.80;99.90;;;;;;5029082;28;20044;-57
2021/03/05 12:09:01;;;;;;;15.70;2.70;;;6.80;99.90;;;;;;5019305;28;20029;-51
2021/03/05 12:11:27;;;;;;;13.45;2.13;;;6.80;99.90;;;;;;5031889;28;20030;-52
2021/03/05 12:13:52;;;;;;;15.18;1.90;;;6.80;99.90;;;;;;5032080;28;20055;-52
2021/03/05 12:16:18;;;;;;;18.83;2.00;;;6.90;99.90;;;;;;5030683;28;20021;-52
2021/03/05 12:18:44;;;;;;;11.25;1.75;;;6.80;99.90;;;;;;5031950;28;20089;-56
2021/03/05 12:21:09;;;;;;;27.20;2.65;;;6.60;99.90;;;;;;5031496;28;20124;-55
2021/03/05 12:23:35;;;;;;;40.45;3.60;;;6.70;99.90;;;;;;5031640;28;20032;-50
2021/03/05 12:26:01;;;;;;;24.20;2.63;;;6.70;99.90;;;;;;5031019;28;20055;-52
2021/03/05 12:28:27;;;;;;;40.63;3.50;;;6.80;99.90;;;;;;5032286;28;20087;-50
2021/03/05 12:30:52;;;;;;;82.28;5.45;;;6.80;99.90;;;;;;5031297;28;20246;-51
2021/03/05 12:33:18;;;;;;;10.00;2.10;;;6.80;99.90;;;;;;5029303;28;20036;-48
2021/03/05 12:35:44;;;;;;;20.88;2.45;;;6.90;99.90;;;;;;5031831;28;20038;-52
2021/03/05 12:38:09;;;;;;;20.80;2.60;;;6.80;99.90;;;;;;5031176;28;20026;-54
2021/03/05 12:40:35;;;;;;;22.73;2.10;;;6.90;99.90;;;;;;5030675;28;20055;-53
2021/03/05 12:43:01;;;;;;;15.55;2.30;;;6.90;99.90;;;;;;5030879;28;20033;-53
2021/03/05 12:45:27;;;;;;;16.15;2.35;;;6.90;99.90;;;;;;5032031;28;20029;-54
2021/03/05 12:47:53;;;;;;;26.88;3.20;;;6.90;99.90;;;;;;5030973;28;20418;-51
2021/03/05 12:50:19;;;;;;;13.32;1.95;;;6.90;99.90;;;;;;5030557;28;20033;-52
2021/03/05 12:52:44;;;;;;;29.10;3.50;;;6.80;99.90;;;;;;5029616;28;20065;-54
2021/03/05 12:55:11;;;;;;;12.60;2.38;;;6.70;99.90;;;;;;5031718;28;20108;-51
2021/03/05 12:57:37;;;;;;;89.65;5.35;;;6.70;99.90;;;;;;5030619;28;20029;-51